Maryland AWOS List, Phone Numbers

USA |  
| Search AWOS

Rocky Mountain States: Montana | Wyoming | Colorado | New Mexico

Complete weather reports: Maryland

Legend: KFNL = METAR available Follow your local AWOS on AV Mobile = METAR available on AV Mobile
Station Maryland Location Frequency Phone
KAPGFAA ID APG, KAPG 062351Z 10006KT 7SM BKN030 BKN055 27/23 A3003 Follow KAPG on AV Mobile Phillips Army Air Field / Aberdeen
K61WICAO ID K61W Annapolis Coast Guard Station
KNAKICAO ID KNAK, KNAK 070154Z AUTO 17006KT 10SM FEW024 SCT085 BKN110 26/23 A3002 RMK AO2 RAE31 SLP166 P0000 T02610228 Follow KNAK on AV Mobile ANNAPOLIS US NAVAL ACADEMY
KLWXICAO ID KLWX Baltimore / DC Nexrad
KDMHICAO ID KDMH, KDMH 070154Z AUTO 23/22 A2999 RMK AO1 SLP156 P0050 T02330222 Follow KDMH on AV Mobile BALTIMORE DOWNTOWN
KMTNFAA ID MTN, AWOS-3, KMTN 070145Z 24008KT 10SM SCT025 27/25 A3003 Follow KMTN on AV Mobile Baltimore / Martin 410-682-8848
4MDFAA ID 4MD, Belfort PIER 7
KADWFAA ID ADW, KADW 070158Z 13004KT 10SM CLR 23/23 A3003 RMK AO2A LTG DSNT NE SLP174 T02300228 $ Follow KADW on AV Mobile Camp Springs / Andrews Air Force Base
W32FAA ID W32, Belfort WASHINGTON EXECUTIVE/HYDE FIELD
K66WICAO ID K66W Cove Point Coast Guard Light Station
KESNFAA ID ESN, AWOS-3, KESN 070211Z AUTO 23008G20KT 10SM RA SCT010 SCT014 SCT028 27/22 A3009 Follow KESN on AV Mobile Easton / Newman Field 124.475 410-822-2817
KFMEFAA ID FME, AWOS-3, KFME 070154Z AUTO 00000KT 3SM SCT043 SCT048 SCT055 21/20 A3004 RMK AO1 Follow KFME on AV Mobile Fort Meade / Tipton 123.925
KJWXICAO ID KJWX Fort Ritchie
KFDKFAA ID FDK, AWOS-3, KFDK 070150Z AUTO 00000KT 10SM VCTS CLR 24/23 A3005 Follow KFDK on AV Mobile Frederick, Frederick Municipal Airport 124.875 301-600-1457
KGAIFAA ID GAI, AWOS-3, KGAI 070155Z AUTO 12004KT 10SM CLR 22/20 A3006 RMK AO1 LTG DSNT E Follow KGAI on AV Mobile GAITHERSBURG 128.275 301-977-2971
KHGRFAA ID HGR, ASOS, KHGR 070153Z AUTO 11005KT 10SM FEW034 24/21 A3003 RMK AO2 SLP172 T02440211 Follow KHGR on AV Mobile HAGERSTOWN REGIONAL AIRPORT 126.375 301-745-3497
K2W6FAA ID 2W6, AWOS-3, K2W6 070152Z AUTO 00000KT 10SM SCT047 SCT050 22/20 A3007 RMK AO1 Follow K2W6 on AV Mobile LEONARDTOWN 119.575 301-373-6514
K2G4FAA ID 2G4, AWOS-3, K2G4 070150Z AUTO 21006KT 7SM CLR 17/ A3013 RMK AO1 Follow K2G4 on AV Mobile OAKLAND 120.125 301-746-8443
KW30ICAO ID KW30 Ocean City
KN80ICAO ID KN80 Ocean City, Ocean City Municipal Airport
KOXBFAA ID OXB, ASOS, KOXB 070153Z AUTO 18004KT 8SM CLR 25/23 A3008 RMK AO2 SLP185 T02500233 TSNO Follow KOXB on AV Mobile OCEAN CITY MUNICIPAL AIRPORT 119.025 410-213-1530
KNHKFAA ID NHK, KNHK 070152Z 17006KT 10SM FEW020 BKN100 OVC250 23/22 A3005 RMK AO2 RAE21 SLP175 P0000 T02330217 $ Follow KNHK on AV Mobile NAS PATUXENT RIVER MD
KSBYFAA ID SBY, ASOS, KSBY 070154Z 15005KT 10SM CLR 24/23 A3007 Follow KSBY on AV Mobile SALISBURY-WICOMICO CTY REG 118.325 410-341-0868
KNUIFAA ID NUI, KNUI 041935Z AUTO 13007KT 8SM SCT020 BKN041 27/22 A2989 Follow KNUI on AV Mobile KNUI WEBSTER FIELD ANNEX
KW29FAA ID W29, AWOS-3, KW29 070152Z AUTO 16010G14KT 10SM 26/21 A3003 RMK AO1 LTG DSNT N AND NW Follow KW29 on AV Mobile STEVENSVILLE 120.575 410-643-8795
K67WICAO ID K67W Stillpond Coast Guard Station
K65WICAO ID K65W Thomas Point Coast Guard Station
KDMWFAA ID DMW, AWOS-3, KDMW 070150Z AUTO 15003KT 10SM VCTS SCT042 BKN048 BKN090 23/22 A3004 RMK AO2 LTG DSNT E AND SE Follow KDMW on AV Mobile WESTMINSTER 121.25 410-876-1281

Click on the AV Mobile icon AV Mobile icon by any station to follow that AWOS feed on AirportView.net Mobile.

Garmin aera 796 $1999 at Avionics Specialists LLC
Bose A20 Aviation Headsets $995 at Avionics Specialists LLC